createdAt,value
2023-03-15T00:00:00.619Z,8.2
2023-03-15T00:01:01.611Z,8.2
2023-03-15T00:02:00.714Z,8.2
2023-03-15T00:03:00.577Z,7.3
2023-03-15T00:04:00.673Z,7.3
2023-03-15T00:05:00.920Z,7.3
2023-03-15T00:06:00.527Z,7.3
2023-03-15T00:07:00.559Z,7.3
2023-03-15T00:08:01.020Z,8.4
2023-03-15T00:09:00.586Z,8.4
2023-03-15T00:10:00.651Z,8.4
2023-03-15T00:11:01.099Z,8.4
2023-03-15T00:12:01.518Z,8.4
2023-03-15T00:13:00.516Z,7.0
2023-03-15T00:14:00.677Z,7.0
2023-03-15T00:15:00.535Z,7.0
2023-03-15T00:16:01.730Z,7.0
2023-03-15T00:17:00.570Z,7.0
2023-03-15T00:18:00.605Z,7.7
2023-03-15T00:19:00.534Z,7.7
2023-03-15T00:20:00.754Z,7.7
2023-03-15T00:21:00.572Z,7.7
2023-03-15T00:22:00.579Z,7.7
2023-03-15T00:23:00.546Z,8.8
2023-03-15T00:24:00.936Z,8.8
2023-03-15T00:25:00.548Z,8.8
2023-03-15T00:26:00.581Z,8.8
2023-03-15T00:27:00.668Z,8.8
2023-03-15T00:28:00.582Z,6.0
2023-03-15T00:29:00.546Z,6.0
2023-03-15T00:30:00.645Z,6.0
2023-03-15T00:31:03.996Z,6.0
2023-03-15T00:32:00.550Z,6.0
2023-03-15T00:33:00.611Z,8.5
2023-03-15T00:34:00.539Z,8.5
2023-03-15T00:35:00.616Z,8.5
2023-03-15T00:36:04.061Z,8.5
2023-03-15T00:37:00.605Z,8.5
2023-03-15T00:38:00.556Z,6.1
2023-03-15T00:39:00.651Z,6.1
2023-03-15T00:40:00.539Z,6.1
2023-03-15T00:41:08.856Z,6.1
2023-03-15T00:42:00.533Z,6.1
2023-03-15T00:43:00.519Z,6.9
2023-03-15T00:44:00.552Z,6.9
2023-03-15T00:45:00.628Z,6.9
2023-03-15T00:46:01.377Z,6.9
2023-03-15T00:47:00.564Z,6.9
2023-03-15T00:48:00.537Z,11.7
2023-03-15T00:49:00.554Z,11.7
2023-03-15T00:50:00.558Z,11.7
2023-03-15T00:51:02.721Z,11.7
2023-03-15T00:52:00.689Z,11.7
2023-03-15T00:53:00.632Z,10.4
2023-03-15T00:54:00.522Z,10.4
2023-03-15T00:55:00.645Z,10.4
2023-03-15T00:56:07.041Z,10.4
2023-03-15T00:57:01.279Z,10.4
2023-03-15T00:58:00.675Z,8.8
2023-03-15T00:59:00.678Z,8.8
2023-03-15T01:00:00.719Z,8.8
2023-03-15T01:01:08.435Z,8.8
2023-03-15T01:02:01.426Z,8.8
2023-03-15T01:03:00.774Z,8.7
2023-03-15T01:04:00.873Z,8.7
2023-03-15T01:05:00.669Z,8.7
2023-03-15T01:06:11.247Z,8.7
2023-03-15T01:07:00.700Z,8.7
2023-03-15T01:08:00.746Z,9.8
2023-03-15T01:09:00.660Z,9.8
2023-03-15T01:10:02.133Z,9.8
2023-03-15T01:11:01.399Z,9.8
2023-03-15T01:12:00.680Z,7.1
2023-03-15T01:13:00.688Z,7.1
2023-03-15T01:14:00.693Z,7.1
2023-03-15T01:15:04.156Z,7.1
2023-03-15T01:16:00.777Z,7.1
2023-03-15T01:17:00.677Z,7.6
2023-03-15T01:18:00.772Z,7.6
2023-03-15T01:19:00.650Z,7.6
2023-03-15T01:20:01.295Z,7.6
2023-03-15T01:21:00.682Z,7.6
2023-03-15T01:22:00.698Z,6.2
2023-03-15T01:23:00.672Z,6.2
2023-03-15T01:24:00.706Z,6.2
2023-03-15T01:25:00.654Z,6.2
2023-03-15T01:26:03.670Z,6.2
2023-03-15T01:27:00.674Z,6.9
2023-03-15T01:28:00.712Z,6.9
2023-03-15T01:29:00.690Z,6.9
2023-03-15T01:30:00.929Z,6.9
2023-03-15T01:31:00.813Z,6.9
2023-03-15T01:32:00.700Z,9.0
2023-03-15T01:33:00.786Z,9.0
2023-03-15T01:34:00.680Z,9.0
2023-03-15T01:35:00.761Z,9.0
2023-03-15T01:36:04.047Z,9.0
2023-03-15T01:37:00.845Z,7.0
2023-03-15T01:38:00.663Z,7.0
2023-03-15T01:39:00.711Z,7.0
2023-03-15T01:40:01.099Z,7.0
2023-03-15T01:41:00.727Z,7.0
2023-03-15T01:42:01.840Z,9.8
2023-03-15T01:43:01.721Z,9.8
2023-03-15T01:44:00.687Z,9.8
2023-03-15T01:45:00.645Z,9.8
2023-03-15T01:46:02.935Z,9.8
2023-03-15T01:47:00.717Z,7.2
2023-03-15T01:48:01.313Z,7.2
2023-03-15T01:49:20.472Z,7.2
2023-03-15T01:50:07.852Z,7.2
2023-03-15T01:51:04.919Z,7.2
2023-03-15T01:52:05.675Z,5.4
2023-03-15T01:53:00.736Z,5.4
2023-03-15T01:54:12.393Z,5.4
2023-03-15T01:55:06.403Z,5.4
2023-03-15T01:56:01.661Z,5.4
2023-03-15T01:57:06.780Z,9.5
2023-03-15T01:58:01.323Z,9.5
2023-03-15T01:59:03.560Z,9.5
2023-03-15T02:00:05.886Z,9.5
2023-03-15T02:01:01.690Z,9.5
2023-03-15T02:02:01.145Z,6.9
2023-03-15T02:03:08.500Z,6.9
2023-03-15T02:04:08.000Z,6.9
2023-03-15T02:05:05.983Z,6.9
2023-03-15T02:06:04.571Z,6.9
2023-03-15T02:07:02.624Z,9.5
2023-03-15T02:08:02.824Z,9.5
2023-03-15T02:09:05.750Z,9.5
2023-03-15T02:10:04.994Z,9.5
2023-03-15T02:11:03.499Z,9.5
2023-03-15T02:12:02.992Z,7.8
2023-03-15T02:13:01.685Z,7.8
2023-03-15T02:14:01.919Z,7.8
2023-03-15T02:15:04.076Z,7.8
2023-03-15T02:16:01.023Z,7.8
2023-03-15T02:17:00.586Z,8.9
2023-03-15T02:18:00.518Z,8.9
2023-03-15T02:19:00.627Z,8.9
2023-03-15T02:20:16.670Z,8.9
2023-03-15T02:21:11.003Z,8.9
2023-03-15T02:22:11.849Z,6.4
2023-03-15T02:23:11.784Z,6.4
2023-03-15T02:24:20.222Z,6.4
2023-03-15T02:25:10.476Z,6.4
2023-03-15T02:26:11.110Z,6.4
2023-03-15T02:27:00.657Z,8.5
2023-03-15T02:28:02.669Z,8.5
2023-03-15T02:29:00.616Z,8.5
2023-03-15T02:30:02.217Z,8.5
2023-03-15T02:31:00.779Z,8.5
2023-03-15T02:32:01.219Z,6.8
2023-03-15T02:33:03.313Z,6.8
2023-03-15T02:34:00.537Z,6.8
2023-03-15T02:35:00.620Z,6.8
2023-03-15T02:36:18.924Z,6.8
2023-03-15T02:37:00.602Z,10.0
2023-03-15T02:38:00.535Z,10.0
2023-03-15T02:39:11.144Z,10.0
2023-03-15T02:40:00.571Z,10.0
2023-03-15T02:41:00.733Z,10.0
2023-03-15T02:42:00.557Z,9.1
2023-03-15T02:43:05.891Z,9.1
2023-03-15T02:44:07.560Z,9.1
2023-03-15T02:45:01.137Z,9.1
2023-03-15T02:46:01.953Z,9.1
2023-03-15T02:47:04.841Z,7.4
2023-03-15T02:48:01.731Z,7.4
2023-03-15T02:49:01.223Z,7.4
2023-03-15T02:50:00.605Z,7.4
2023-03-15T02:51:00.596Z,7.4
2023-03-15T02:52:00.543Z,5.5
2023-03-15T02:53:00.535Z,5.5
2023-03-15T02:54:00.581Z,5.5
2023-03-15T02:55:00.590Z,5.5
2023-03-15T02:56:00.526Z,5.5
2023-03-15T02:57:01.256Z,6.5
2023-03-15T02:58:01.100Z,6.5
2023-03-15T02:59:00.704Z,6.5
2023-03-15T03:00:00.732Z,6.5
2023-03-15T03:01:00.548Z,6.5
2023-03-15T03:02:02.288Z,8.9
2023-03-15T03:03:00.574Z,8.9
2023-03-15T03:04:00.554Z,8.9
2023-03-15T03:05:00.529Z,8.9
2023-03-15T03:06:00.568Z,8.9
2023-03-15T03:07:00.524Z,6.2
2023-03-15T03:08:00.597Z,6.2
2023-03-15T03:09:01.010Z,6.2
2023-03-15T03:10:00.755Z,6.2
2023-03-15T03:11:00.546Z,6.2
2023-03-15T03:12:00.532Z,8.2
2023-03-15T03:13:00.651Z,8.2
2023-03-15T03:14:00.559Z,8.2
2023-03-15T03:15:00.773Z,8.2
2023-03-15T03:16:00.569Z,8.2
2023-03-15T03:17:00.609Z,6.5
2023-03-15T03:18:00.544Z,6.5
2023-03-15T03:19:00.569Z,6.5
2023-03-15T03:20:00.534Z,6.5
2023-03-15T03:21:03.183Z,6.5
2023-03-15T03:22:00.555Z,6.3
2023-03-15T03:23:00.534Z,6.3
2023-03-15T03:24:00.557Z,6.3
2023-03-15T03:25:00.590Z,6.3
2023-03-15T03:26:01.670Z,6.3
2023-03-15T03:27:00.565Z,8.8
2023-03-15T03:28:00.521Z,8.8
2023-03-15T03:29:00.520Z,8.8
2023-03-15T03:30:00.563Z,8.8
2023-03-15T03:31:00.639Z,8.8
2023-03-15T03:32:00.539Z,6.9
2023-03-15T03:33:00.630Z,6.9
2023-03-15T03:34:00.553Z,6.9
2023-03-15T03:35:00.907Z,6.9
2023-03-15T03:36:01.318Z,6.9
2023-03-15T03:37:00.691Z,8.4
2023-03-15T03:38:00.520Z,8.4
2023-03-15T03:39:00.528Z,8.4
2023-03-15T03:40:00.915Z,8.4
2023-03-15T03:41:00.543Z,8.4
2023-03-15T03:42:00.585Z,8.4
2023-03-15T03:43:00.571Z,8.4
2023-03-15T03:44:00.549Z,8.4
2023-03-15T03:45:00.609Z,8.4
2023-03-15T03:46:00.662Z,8.4
2023-03-15T03:47:00.544Z,10.3
2023-03-15T03:48:00.742Z,10.3
2023-03-15T03:49:00.794Z,10.3
2023-03-15T03:50:00.582Z,10.3
2023-03-15T03:51:00.658Z,10.3
2023-03-15T03:52:00.728Z,7.8
2023-03-15T03:53:00.539Z,7.8
2023-03-15T03:54:01.209Z,7.8
2023-03-15T03:55:00.546Z,7.8
2023-03-15T03:56:04.200Z,7.8
2023-03-15T03:57:00.518Z,9.3
2023-03-15T03:58:00.562Z,9.3
2023-03-15T03:59:00.613Z,9.3
2023-03-15T04:00:00.565Z,9.3
2023-03-15T04:01:00.575Z,9.3
2023-03-15T04:02:00.598Z,10.4
2023-03-15T04:03:00.570Z,10.4
2023-03-15T04:04:00.533Z,10.4
2023-03-15T04:05:00.750Z,10.4
2023-03-15T04:06:00.846Z,10.4
2023-03-15T04:07:00.528Z,7.3
2023-03-15T04:08:00.595Z,7.3
2023-03-15T04:09:00.854Z,7.3
2023-03-15T04:10:00.667Z,7.3
2023-03-15T04:11:00.854Z,7.3
2023-03-15T04:12:00.590Z,8.5
2023-03-15T04:13:00.734Z,8.5
2023-03-15T04:14:00.514Z,8.5
2023-03-15T04:15:00.538Z,8.5
2023-03-15T04:16:00.697Z,8.5
2023-03-15T04:17:00.548Z,9.4
2023-03-15T04:18:00.635Z,9.4
2023-03-15T04:19:00.893Z,9.4
2023-03-15T04:20:00.553Z,9.4
2023-03-15T04:21:00.544Z,9.4
2023-03-15T04:22:00.857Z,6.7
2023-03-15T04:23:00.590Z,6.7
2023-03-15T04:24:00.914Z,6.7
2023-03-15T04:25:00.656Z,6.7
2023-03-15T04:26:00.541Z,6.7
2023-03-15T04:27:01.040Z,6.5
2023-03-15T04:28:00.531Z,6.5
2023-03-15T04:29:00.544Z,6.5
2023-03-15T04:30:00.551Z,6.5
2023-03-15T04:31:00.595Z,6.5
2023-03-15T04:32:00.528Z,8.1
2023-03-15T04:33:00.644Z,8.1
2023-03-15T04:34:00.540Z,8.1
2023-03-15T04:35:00.887Z,8.1
2023-03-15T04:36:00.753Z,8.1
2023-03-15T04:37:00.540Z,9.3
2023-03-15T04:38:01.241Z,9.3
2023-03-15T04:39:00.534Z,9.3
2023-03-15T04:40:00.571Z,9.3
2023-03-15T04:41:00.553Z,9.3
2023-03-15T04:42:00.523Z,7.8
2023-03-15T04:43:02.416Z,7.8
2023-03-15T04:44:01.722Z,7.8
2023-03-15T04:45:00.575Z,7.8
2023-03-15T04:46:00.515Z,7.8
2023-03-15T04:47:00.550Z,9.2
2023-03-15T04:48:01.296Z,9.2
2023-03-15T04:49:00.568Z,9.2
2023-03-15T04:50:00.532Z,9.2
2023-03-15T04:51:00.744Z,9.2
2023-03-15T04:52:00.600Z,7.5
2023-03-15T04:53:00.662Z,7.5
2023-03-15T04:54:00.960Z,7.5
2023-03-15T04:55:00.591Z,7.5
2023-03-15T04:56:02.355Z,7.5
2023-03-15T04:57:00.583Z,7.9
2023-03-15T04:58:00.585Z,7.9
2023-03-15T04:59:00.530Z,7.9
2023-03-15T05:00:01.028Z,7.9
2023-03-15T05:01:00.592Z,7.9
2023-03-15T05:02:02.813Z,9.1
2023-03-15T05:03:00.562Z,9.1
2023-03-15T05:04:00.589Z,9.1
2023-03-15T05:05:00.594Z,9.1
2023-03-15T05:06:01.343Z,9.1
2023-03-15T05:07:00.571Z,9.2
2023-03-15T05:08:00.582Z,9.2
2023-03-15T05:09:00.555Z,9.2
2023-03-15T05:10:01.029Z,9.2
2023-03-15T05:11:01.886Z,9.2
2023-03-15T05:12:00.575Z,8.2
2023-03-15T05:13:00.587Z,8.2
2023-03-15T05:14:00.573Z,8.2
2023-03-15T05:15:00.751Z,8.2
2023-03-15T05:16:00.654Z,8.2
2023-03-15T05:17:00.592Z,8.6
2023-03-15T05:18:00.691Z,8.6
2023-03-15T05:19:00.579Z,8.6
2023-03-15T05:20:00.603Z,8.6
2023-03-15T05:21:00.567Z,8.6
2023-03-15T05:22:01.805Z,6.5
2023-03-15T05:23:00.528Z,6.5
2023-03-15T05:24:00.528Z,6.5
2023-03-15T05:25:00.584Z,6.5
2023-03-15T05:26:00.734Z,6.5
2023-03-15T05:27:00.575Z,10.9
2023-03-15T05:28:01.024Z,10.9
2023-03-15T05:29:00.589Z,10.9
2023-03-15T05:30:00.914Z,10.9
2023-03-15T05:31:00.851Z,10.9
2023-03-15T05:32:00.644Z,6.9
2023-03-15T05:33:00.723Z,6.9
2023-03-15T05:34:00.556Z,6.9
2023-03-15T05:35:00.818Z,6.9
2023-03-15T05:36:00.598Z,6.9
2023-03-15T05:37:00.577Z,9.8
2023-03-15T05:38:00.585Z,9.8
2023-03-15T05:39:00.536Z,9.8
2023-03-15T05:40:00.660Z,9.8
2023-03-15T05:41:00.575Z,9.8
2023-03-15T05:42:00.535Z,8.4
2023-03-15T05:43:00.537Z,8.4
2023-03-15T05:44:00.610Z,8.4
2023-03-15T05:45:00.720Z,8.4
2023-03-15T05:46:00.826Z,8.4
2023-03-15T05:47:00.560Z,9.7
2023-03-15T05:48:00.618Z,9.7
2023-03-15T05:49:00.598Z,9.7
2023-03-15T05:50:00.583Z,9.7
2023-03-15T05:51:00.570Z,9.7
2023-03-15T05:52:00.558Z,11.3
2023-03-15T05:53:00.576Z,11.3
2023-03-15T05:54:00.636Z,11.3
2023-03-15T05:55:00.602Z,11.3
2023-03-15T05:56:00.561Z,11.3
2023-03-15T05:57:00.647Z,9.5
2023-03-15T05:58:00.581Z,9.5
2023-03-15T05:59:00.553Z,9.5
2023-03-15T06:00:00.592Z,9.5
2023-03-15T06:01:01.251Z,9.5
2023-03-15T06:02:00.559Z,9.1
2023-03-15T06:03:00.619Z,9.1
2023-03-15T06:04:00.629Z,9.1
2023-03-15T06:05:00.836Z,9.1
2023-03-15T06:06:00.567Z,9.1
2023-03-15T06:07:00.696Z,10.3
2023-03-15T06:08:00.564Z,10.3
2023-03-15T06:09:00.628Z,10.3
2023-03-15T06:10:00.703Z,10.3
2023-03-15T06:11:00.539Z,10.3
2023-03-15T06:12:00.609Z,7.7
2023-03-15T06:13:00.562Z,7.7
2023-03-15T06:14:00.689Z,7.7
2023-03-15T06:15:00.560Z,7.7
2023-03-15T06:16:00.549Z,7.7
2023-03-15T06:17:00.573Z,7.7
2023-03-15T06:18:00.629Z,7.7
2023-03-15T06:19:00.600Z,7.7
2023-03-15T06:20:01.076Z,7.7
2023-03-15T06:21:00.515Z,7.7
2023-03-15T06:22:00.562Z,9.6
2023-03-15T06:23:00.797Z,9.6
2023-03-15T06:24:00.574Z,9.6
2023-03-15T06:25:00.562Z,9.6
2023-03-15T06:26:00.554Z,9.6
2023-03-15T06:27:00.750Z,8.9
2023-03-15T06:28:00.678Z,8.9
2023-03-15T06:29:00.578Z,8.9
2023-03-15T06:30:00.926Z,8.9
2023-03-15T06:31:06.910Z,10.8
2023-03-15T06:32:00.513Z,10.8
2023-03-15T06:33:00.658Z,10.8
2023-03-15T06:34:00.614Z,10.8
2023-03-15T06:35:00.527Z,10.8
2023-03-15T06:36:00.675Z,10.8
2023-03-15T06:37:00.553Z,9.1
2023-03-15T06:38:00.651Z,9.1
2023-03-15T06:39:00.893Z,9.1
2023-03-15T06:40:02.959Z,9.1
2023-03-15T06:41:00.543Z,9.1
2023-03-15T06:42:00.542Z,9.9
2023-03-15T06:43:00.601Z,9.9
2023-03-15T06:44:00.595Z,9.9
2023-03-15T06:45:00.847Z,9.9
2023-03-15T06:46:00.654Z,9.9
2023-03-15T06:47:00.609Z,10.2
2023-03-15T06:48:00.564Z,10.2
2023-03-15T06:49:00.577Z,10.2
2023-03-15T06:50:00.891Z,10.2
2023-03-15T06:51:00.598Z,8.9
2023-03-15T06:52:01.804Z,8.9
2023-03-15T06:53:00.622Z,8.9
2023-03-15T06:54:00.523Z,8.9
2023-03-15T06:55:00.596Z,8.9
2023-03-15T06:56:00.582Z,11.6
2023-03-15T06:57:00.559Z,11.6
2023-03-15T06:58:00.557Z,11.6
2023-03-15T06:59:00.514Z,11.6
2023-03-15T07:00:00.552Z,11.6
2023-03-15T07:01:00.584Z,10.6
2023-03-15T07:02:00.709Z,10.6
2023-03-15T07:03:00.631Z,10.6
2023-03-15T07:04:00.524Z,10.6
2023-03-15T07:05:00.525Z,10.6
2023-03-15T07:06:00.579Z,8.4
2023-03-15T07:07:00.596Z,8.4
2023-03-15T07:08:00.569Z,8.4
2023-03-15T07:09:03.112Z,8.4
2023-03-15T07:10:01.003Z,8.4
2023-03-15T07:11:01.846Z,7.7
2023-03-15T07:12:00.540Z,7.7
2023-03-15T07:13:00.572Z,7.7
2023-03-15T07:14:00.541Z,7.7
2023-03-15T07:15:00.537Z,7.7
2023-03-15T07:16:00.682Z,8.7
2023-03-15T07:17:00.563Z,8.7
2023-03-15T07:18:00.533Z,8.7
2023-03-15T07:19:01.215Z,8.7
2023-03-15T07:20:00.554Z,8.7
2023-03-15T07:21:02.310Z,9.2
2023-03-15T07:22:00.539Z,9.2
2023-03-15T07:23:00.690Z,9.2
2023-03-15T07:24:00.533Z,9.2
2023-03-15T07:25:00.558Z,9.2
2023-03-15T07:26:00.732Z,10.0
2023-03-15T07:27:00.655Z,10.0
2023-03-15T07:28:00.562Z,10.0
2023-03-15T07:29:00.570Z,10.0
2023-03-15T07:30:00.558Z,10.0
2023-03-15T07:31:03.340Z,8.3
2023-03-15T07:32:00.565Z,8.3
2023-03-15T07:33:00.695Z,8.3
2023-03-15T07:34:00.549Z,8.3
2023-03-15T07:35:00.612Z,8.3
2023-03-15T07:36:00.822Z,10.3
2023-03-15T07:37:00.570Z,10.3
2023-03-15T07:38:00.577Z,10.3
2023-03-15T07:39:00.556Z,10.3
2023-03-15T07:40:00.626Z,10.3
2023-03-15T07:41:01.358Z,11.7
2023-03-15T07:42:00.835Z,11.7
2023-03-15T07:43:00.541Z,11.7
2023-03-15T07:44:00.529Z,11.7
2023-03-15T07:45:00.744Z,11.7
2023-03-15T07:46:00.547Z,7.0
2023-03-15T07:47:00.618Z,7.0
2023-03-15T07:48:00.589Z,7.0
2023-03-15T07:49:00.563Z,7.0
2023-03-15T07:50:00.743Z,7.0
2023-03-15T07:51:00.537Z,9.7
2023-03-15T07:52:00.539Z,9.7
2023-03-15T07:53:01.752Z,9.7
2023-03-15T07:54:00.539Z,9.7
2023-03-15T07:55:00.642Z,9.7
2023-03-15T07:56:00.555Z,7.2
2023-03-15T07:57:00.629Z,7.2
2023-03-15T07:58:01.188Z,7.2
2023-03-15T07:59:00.561Z,7.2
2023-03-15T08:00:00.577Z,7.2
2023-03-15T08:01:00.556Z,10.3
2023-03-15T08:02:02.824Z,10.3
2023-03-15T08:03:00.600Z,10.3
2023-03-15T08:04:00.533Z,10.3
2023-03-15T08:05:00.555Z,10.3
2023-03-15T08:06:00.612Z,7.9
2023-03-15T08:07:00.557Z,7.9
2023-03-15T08:08:00.668Z,7.9
2023-03-15T08:09:00.605Z,7.9
2023-03-15T08:10:00.550Z,7.9
2023-03-15T08:11:00.552Z,7.8
2023-03-15T08:12:00.766Z,7.8
2023-03-15T08:13:00.630Z,7.8
2023-03-15T08:14:00.519Z,7.8
2023-03-15T08:15:00.517Z,7.8
2023-03-15T08:16:00.628Z,8.7
2023-03-15T08:17:00.550Z,8.7
2023-03-15T08:18:00.562Z,8.7
2023-03-15T08:19:00.552Z,8.7
2023-03-15T08:20:00.556Z,8.7
2023-03-15T08:21:00.595Z,8.2
2023-03-15T08:22:00.534Z,8.2
2023-03-15T08:23:00.890Z,8.2
2023-03-15T08:24:00.817Z,8.2
2023-03-15T08:25:00.521Z,8.2
2023-03-15T08:26:00.535Z,9.0
2023-03-15T08:27:00.848Z,9.0
2023-03-15T08:28:00.528Z,9.0
2023-03-15T08:29:00.593Z,9.0
2023-03-15T08:30:00.561Z,9.0
2023-03-15T08:31:00.524Z,6.8
2023-03-15T08:32:00.572Z,6.8
2023-03-15T08:33:00.833Z,6.8
2023-03-15T08:34:00.538Z,6.8
2023-03-15T08:35:00.553Z,6.8
2023-03-15T08:36:00.587Z,7.1
2023-03-15T08:37:00.624Z,7.1
2023-03-15T08:38:01.147Z,7.1
2023-03-15T08:39:00.565Z,7.1
2023-03-15T08:40:00.568Z,7.1
2023-03-15T08:41:00.962Z,10.0
2023-03-15T08:42:00.834Z,10.0
2023-03-15T08:43:00.706Z,10.0
2023-03-15T08:44:00.550Z,10.0
2023-03-15T08:45:00.628Z,10.0
2023-03-15T08:46:01.835Z,9.3
2023-03-15T08:47:00.650Z,9.3
2023-03-15T08:48:01.148Z,9.3
2023-03-15T08:49:01.801Z,9.3
2023-03-15T08:50:01.807Z,9.3
2023-03-15T08:51:02.423Z,8.4
2023-03-15T08:52:00.523Z,8.4
2023-03-15T08:53:00.561Z,8.4
2023-03-15T08:54:00.570Z,8.4
2023-03-15T08:55:00.571Z,8.4
2023-03-15T08:56:00.686Z,11.0
2023-03-15T08:57:00.558Z,11.0
2023-03-15T08:58:01.999Z,11.0
2023-03-15T08:59:00.578Z,11.0
2023-03-15T09:00:03.690Z,11.0
2023-03-15T09:01:00.527Z,5.5
2023-03-15T09:02:00.965Z,5.5
2023-03-15T09:03:00.551Z,5.5
2023-03-15T09:04:01.136Z,5.5
2023-03-15T09:05:00.590Z,5.5
2023-03-15T09:06:00.548Z,8.0
2023-03-15T09:07:00.548Z,8.0
2023-03-15T09:08:00.678Z,8.0
2023-03-15T09:09:00.572Z,8.0
2023-03-15T09:10:01.568Z,8.0
2023-03-15T09:11:00.690Z,7.9
2023-03-15T09:12:00.572Z,7.9
2023-03-15T09:13:00.615Z,7.9
2023-03-15T09:14:00.720Z,7.9
2023-03-15T09:15:00.672Z,7.9
2023-03-15T09:16:00.584Z,10.3
2023-03-15T09:17:00.578Z,10.3
2023-03-15T09:18:00.523Z,10.3
2023-03-15T09:19:00.583Z,10.3
2023-03-15T09:20:00.541Z,10.3
2023-03-15T09:21:00.612Z,7.6
2023-03-15T09:22:15.903Z,7.6
2023-03-15T09:23:00.571Z,7.6
2023-03-15T09:24:00.567Z,7.6
2023-03-15T09:25:00.538Z,7.6
2023-03-15T09:26:01.036Z,9.7
2023-03-15T09:27:00.539Z,9.7
2023-03-15T09:28:00.515Z,9.7
2023-03-15T09:29:00.622Z,9.7
2023-03-15T09:30:00.876Z,9.7
2023-03-15T09:31:04.381Z,10.2
2023-03-15T09:32:00.533Z,10.2
2023-03-15T09:33:00.674Z,10.2
2023-03-15T09:34:00.716Z,10.2
2023-03-15T09:35:03.240Z,10.2
2023-03-15T09:36:00.599Z,12.9
2023-03-15T09:37:00.589Z,12.9
2023-03-15T09:38:00.913Z,12.9
2023-03-15T09:39:00.582Z,12.9
2023-03-15T09:40:00.770Z,12.9
2023-03-15T09:41:00.566Z,7.1
2023-03-15T09:42:04.178Z,7.1
2023-03-15T09:43:08.136Z,7.1
2023-03-15T09:44:11.133Z,7.1
2023-03-15T09:45:12.906Z,7.1
2023-03-15T09:46:17.261Z,8.3
2023-03-15T09:47:11.833Z,8.3
2023-03-15T09:48:17.845Z,8.3
2023-03-15T09:49:10.671Z,8.3
2023-03-15T09:50:17.638Z,8.3
2023-03-15T09:51:09.024Z,7.2
2023-03-15T09:52:12.711Z,7.2
2023-03-15T09:53:05.213Z,7.2
2023-03-15T09:54:12.522Z,7.2
2023-03-15T09:55:20.062Z,7.2
2023-03-15T09:56:00.581Z,7.1
2023-03-15T09:57:07.760Z,7.1
2023-03-15T09:58:03.852Z,7.1
2023-03-15T09:59:00.784Z,7.1
2023-03-15T10:00:03.650Z,7.1
2023-03-15T10:01:05.353Z,6.1
2023-03-15T10:02:12.826Z,6.1
2023-03-15T10:03:01.257Z,6.1
2023-03-15T10:04:20.470Z,6.1
2023-03-15T10:05:06.929Z,6.1
2023-03-15T10:06:06.424Z,11.4
2023-03-15T10:07:02.881Z,11.4
2023-03-15T10:08:00.526Z,11.4
2023-03-15T10:09:09.474Z,11.4
2023-03-15T10:10:01.007Z,11.4
2023-03-15T10:11:10.476Z,7.6
2023-03-15T10:12:13.635Z,7.6
2023-03-15T10:13:11.513Z,7.6
2023-03-15T10:14:13.773Z,7.6
2023-03-15T10:15:15.289Z,7.6
2023-03-15T10:16:13.590Z,8.8
2023-03-15T10:17:09.832Z,8.8
2023-03-15T10:18:09.395Z,8.8
2023-03-15T10:19:05.088Z,8.8
2023-03-15T10:20:09.053Z,8.8
2023-03-15T10:21:09.529Z,10.6
2023-03-15T10:22:09.997Z,10.6
2023-03-15T10:23:10.523Z,10.6
2023-03-15T10:24:01.864Z,10.6
2023-03-15T10:25:14.060Z,10.6
2023-03-15T10:26:03.936Z,9.3
2023-03-15T10:27:11.785Z,9.3
2023-03-15T10:28:08.880Z,9.3
2023-03-15T10:29:08.184Z,9.3
2023-03-15T10:30:01.708Z,9.3
2023-03-15T10:31:10.223Z,7.0
2023-03-15T10:32:01.312Z,7.0
2023-03-15T10:33:10.514Z,7.0
2023-03-15T10:34:00.975Z,7.0
2023-03-15T10:35:00.652Z,7.0
2023-03-15T10:36:11.019Z,9.3
2023-03-15T10:37:00.550Z,9.3
2023-03-15T10:38:00.523Z,9.3
2023-03-15T10:39:00.585Z,9.3
2023-03-15T10:40:00.541Z,9.3
2023-03-15T10:41:04.681Z,10.3
2023-03-15T10:42:02.196Z,10.3
2023-03-15T10:43:00.636Z,10.3
2023-03-15T10:44:04.520Z,10.3
2023-03-15T10:45:11.487Z,10.3
2023-03-15T10:46:04.802Z,6.9
2023-03-15T10:47:15.988Z,6.9
2023-03-15T10:48:01.308Z,6.9
2023-03-15T10:49:13.574Z,6.9
2023-03-15T10:50:00.542Z,6.9
2023-03-15T10:51:14.436Z,6.7
2023-03-15T10:52:00.748Z,6.7
2023-03-15T10:53:08.193Z,6.7
2023-03-15T10:54:07.252Z,6.7
2023-03-15T10:55:05.042Z,6.7
2023-03-15T10:56:05.513Z,6.3
2023-03-15T10:57:14.354Z,6.3
2023-03-15T10:58:17.632Z,6.3
2023-03-15T10:59:11.885Z,6.3
2023-03-15T11:00:06.300Z,6.3
2023-03-15T11:01:03.536Z,6.1
2023-03-15T11:02:10.492Z,6.1
2023-03-15T11:03:03.377Z,6.1
2023-03-15T11:04:08.012Z,6.1
2023-03-15T11:05:13.609Z,6.1
2023-03-15T11:06:01.365Z,9.4
2023-03-15T11:07:03.240Z,9.4
2023-03-15T11:08:00.524Z,9.4
2023-03-15T11:09:10.816Z,9.4
2023-03-15T11:10:02.614Z,9.4
2023-03-15T11:11:00.627Z,9.9
2023-03-15T11:12:04.056Z,9.9
2023-03-15T11:13:20.448Z,9.9
2023-03-15T11:14:00.530Z,9.9
2023-03-15T11:15:05.229Z,9.9
2023-03-15T11:16:05.742Z,6.7
2023-03-15T11:17:03.453Z,6.7
2023-03-15T11:18:00.586Z,6.7
2023-03-15T11:19:02.276Z,6.7
2023-03-15T11:20:06.550Z,6.7
2023-03-15T11:21:04.673Z,4.8
2023-03-15T11:22:01.665Z,4.8
2023-03-15T11:23:14.341Z,4.8
2023-03-15T11:24:03.471Z,4.8
2023-03-15T11:25:00.725Z,4.8
2023-03-15T11:26:01.125Z,5.3
2023-03-15T11:27:08.978Z,5.3
2023-03-15T11:28:00.635Z,5.3
2023-03-15T11:29:13.396Z,5.3
2023-03-15T11:30:00.928Z,5.3
2023-03-15T11:31:02.643Z,8.2
2023-03-15T11:32:10.216Z,8.2
2023-03-15T11:33:05.924Z,8.2
2023-03-15T11:34:11.414Z,8.2
2023-03-15T11:35:06.575Z,8.2
2023-03-15T11:36:04.245Z,7.3
2023-03-15T11:37:11.146Z,7.3
2023-03-15T11:38:15.482Z,7.3
2023-03-15T11:39:03.156Z,7.3
2023-03-15T11:40:14.076Z,7.3
2023-03-15T11:41:09.952Z,8.8
2023-03-15T11:42:09.950Z,8.8
2023-03-15T11:43:14.613Z,8.8
2023-03-15T11:44:04.013Z,8.8
2023-03-15T11:45:07.894Z,8.8
2023-03-15T11:46:04.948Z,9.0
2023-03-15T11:47:07.831Z,9.0
2023-03-15T11:48:13.622Z,9.0
2023-03-15T11:49:18.054Z,9.0
2023-03-15T11:50:00.589Z,9.0
2023-03-15T11:51:01.166Z,6.4
2023-03-15T11:52:01.070Z,6.4
2023-03-15T11:53:01.840Z,6.4
2023-03-15T11:54:12.677Z,6.4
2023-03-15T11:55:01.238Z,6.4
2023-03-15T11:56:20.444Z,14.2
2023-03-15T11:57:04.561Z,14.2
2023-03-15T11:58:20.479Z,14.2
2023-03-15T11:59:11.440Z,14.2
2023-03-15T12:00:15.929Z,14.2
2023-03-15T12:01:03.070Z,8.3
2023-03-15T12:02:10.638Z,8.3
2023-03-15T12:03:20.534Z,8.3
2023-03-15T12:04:20.460Z,8.3
2023-03-15T12:05:17.621Z,8.3
2023-03-15T12:06:10.295Z,9.2
2023-03-15T12:07:03.241Z,9.2
2023-03-15T12:08:20.352Z,9.2
2023-03-15T12:09:01.072Z,9.2
2023-03-15T12:10:01.560Z,9.2
2023-03-15T12:11:01.249Z,17.7
2023-03-15T12:12:05.900Z,17.7
2023-03-15T12:13:15.968Z,17.7
2023-03-15T12:14:00.560Z,17.7
2023-03-15T12:15:13.794Z,17.7
2023-03-15T12:16:00.573Z,16.4
2023-03-15T12:17:20.491Z,16.4
2023-03-15T12:18:04.877Z,16.4
2023-03-15T12:19:07.565Z,16.4
2023-03-15T12:20:07.374Z,16.4
2023-03-15T12:21:08.501Z,7.5
2023-03-15T12:22:00.613Z,7.5
2023-03-15T12:23:17.842Z,7.5
2023-03-15T12:24:04.555Z,7.5
2023-03-15T12:25:14.764Z,7.5
2023-03-15T12:26:01.562Z,7.0
2023-03-15T12:27:04.227Z,7.0
2023-03-15T12:28:05.817Z,7.0
2023-03-15T12:29:10.874Z,7.0
2023-03-15T12:30:01.508Z,7.0
2023-03-15T12:31:03.350Z,7.1
2023-03-15T12:32:00.521Z,7.1
2023-03-15T12:33:01.990Z,7.1
2023-03-15T12:34:02.970Z,7.1
2023-03-15T12:35:15.609Z,7.1
2023-03-15T12:36:08.059Z,7.2
2023-03-15T12:37:05.902Z,7.2
2023-03-15T12:38:01.355Z,7.2
2023-03-15T12:39:17.831Z,7.2
2023-03-15T12:40:18.012Z,7.2
2023-03-15T12:41:05.670Z,11.4
2023-03-15T12:42:00.548Z,11.4
2023-03-15T12:43:01.062Z,11.4
2023-03-15T12:44:20.489Z,11.4
2023-03-15T12:45:18.041Z,11.4
2023-03-15T12:46:00.749Z,7.1
2023-03-15T12:47:01.559Z,7.1
2023-03-15T12:48:00.537Z,7.1
2023-03-15T12:49:05.003Z,7.1
2023-03-15T12:50:20.602Z,7.1
2023-03-15T12:51:03.204Z,5.9
2023-03-15T12:52:05.803Z,5.9
2023-03-15T12:53:02.617Z,5.9
2023-03-15T12:54:02.843Z,5.9
2023-03-15T12:55:10.880Z,5.9
2023-03-15T12:56:18.008Z,5.2
2023-03-15T12:57:03.360Z,5.2
2023-03-15T12:58:02.172Z,5.2
2023-03-15T12:59:14.697Z,5.2
2023-03-15T13:00:03.931Z,5.2
2023-03-15T13:01:03.938Z,7.0
2023-03-15T13:02:02.400Z,7.0
2023-03-15T13:03:05.109Z,7.0
2023-03-15T13:04:02.626Z,7.0
2023-03-15T13:05:14.328Z,7.0
2023-03-15T13:06:18.081Z,8.9
2023-03-15T13:07:16.397Z,8.9
2023-03-15T13:08:07.839Z,8.9
2023-03-15T13:09:08.002Z,8.9
2023-03-15T13:10:15.722Z,8.9
2023-03-15T13:11:06.713Z,6.9
2023-03-15T13:12:10.487Z,6.9
2023-03-15T13:13:12.414Z,6.9
2023-03-15T13:14:13.745Z,6.9
2023-03-15T13:15:12.915Z,6.9
2023-03-15T13:16:03.074Z,22.3
2023-03-15T13:17:10.492Z,22.3
2023-03-15T13:18:12.467Z,22.3
2023-03-15T13:19:10.495Z,22.3
2023-03-15T13:20:17.497Z,22.3
2023-03-15T13:21:12.618Z,13.0
2023-03-15T13:22:11.219Z,13.0
2023-03-15T13:23:20.458Z,13.0
2023-03-15T13:24:02.338Z,13.0
2023-03-15T13:25:16.057Z,13.0
2023-03-15T13:26:20.443Z,10.4
2023-03-15T13:27:09.941Z,10.4
2023-03-15T13:28:06.174Z,10.4
2023-03-15T13:29:10.498Z,10.4
2023-03-15T13:30:18.186Z,10.4
2023-03-15T13:31:00.864Z,19.1
2023-03-15T13:32:10.481Z,19.1
2023-03-15T13:33:04.204Z,19.1
2023-03-15T13:34:15.697Z,19.1
2023-03-15T13:35:00.668Z,19.1
2023-03-15T13:36:04.651Z,10.8
2023-03-15T13:37:00.786Z,10.8
2023-03-15T13:38:05.980Z,10.8
2023-03-15T13:39:00.523Z,10.8
2023-03-15T13:40:04.708Z,10.8